Weather at St Johns Industrial Air Park

Public forecast

Using degrees Fahrenheit for public forecast. Weather courtesy of forecast.io.

Current aviation weather report (METAR) for St Johns Industrial Air Park

Retrieved 2022/01/22 20:54 UTC (55 minutes ago):

KSJN 222054Z AUTO 10010G18KT 10SM BKN060 BKN110 10/M04 A3007 RMK AO2 SLP171 T01001044 58013

Closest aviation forecast (TAF) to St Johns Industrial Air Park

Closest forecast is Gallup Municipal Airport, 66.3 nm (122.7 km) NNE. Retrieved 2022/01/22 18:30 UTC (3 hours ago):

TAF KGUP 221727Z 2218/2318 07012KT P6SM BKN080 FM230200 VRB06KT P6SM BKN070 FM231700 04006KT P6SM SCT090